My Account

Manage Bookings Logout

My Flight

remove
More info
More info
More info
More info
More info

GBP = 1065.00 EUR

More info
Search flights

Barra | United Kingdom

Not all Scottish islands are created equal. Barra is by no means the largest of the Western Isles, but its mile-long beaches and storybook scenery – not to mention an addictively unrushed pace of life – make it one of the most notable. The hilltop view from the main village of Castlebay, where eyes are naturally drawn to the island fortress of KisimulCastle, remains one of Scotland’s most poetic.

Things to do in Barra

1

Land on the sand

Travel to Barra from Glasgow Airport involves one of the most unique landings in world aviation. The island boasts one of the only beach airports on the planet, its sands so broad and well packed that they double as a runway. Unsurprisingly, arrivals are at low tide only. You’re even free to wander the beach when it’s not in use as an airfield, an activity nicely rounded off by a cuppa from the airport café (Eoligarry).

2

Hike or bike

For many visitors, the landscapes of the Outer Hebrides are the chief reason to come calling. Lovers of the outdoors will find various waymarked hiking paths, while cyclists with a spare few days can use Barra as the start (or finish) point for an end-to-end bike ride of the entire island chain. The only populated island lying south of Barra is tiny Vatersay, linked by a causeway and well worth unhurried exploration in its own right.

3

Sample a slow culture

Castlebay not only has a matchless view across the water but also offers a number of spots in which to unwind. The Castlebay Hotel & Restaurant is well known for its shellfish dishes and fresh seafood, while the prime location of the Craigard Hotel makes it a popular spot for an outdoor pint. If you’re looking for something more active to offset the food and drink, the island also has a golf course as well as sea-kayaking operators.

Useful info for your Barra trip

Flight Information

Airport:
Barra Airport | BRR

Flight Time:
1 hr 15mins

Airlines:
Loganair

Prepare for your trip to Barra

Airport Services and Facilities

Check out the services and facilities available at Glasgow Airport before your Barra flight

Learn More

Book Airport Parking

Book your airport parking online in advance to save both time and money before your Barra flight

Book Now

UpperDeck Lounge

Relax in a private space away from the crowds in the UpperDeck Lounge before your Barra flight

Learn More

Book a taxi

Book a hotel

Activities in Barra

Flight Schedule

Flights departing to Barra

Dep Arr To Airline No. M T W T F S S Dates
08:30 09:45 BRR Loganair LM451 28/05/22-18/03/23
08:35 09:50 BRR Loganair LM451 02/11/22-02/11/22
08:50 10:05 BRR Loganair LM451 06/08/22-15/02/23
09:00 10:15 BRR Loganair LM451 04/09/22-04/09/22
09:05 10:20 BRR Loganair LM451 27/08/22-27/08/22
09:10 10:25 BRR Loganair LM451 10/09/22-10/12/22
09:25 10:40 BRR Loganair LM451 26/11/22-26/11/22
09:35 10:50 BRR Loganair LM451 18/12/22-18/12/22
09:40 10:55 BRR Loganair LM451 30/07/22-30/07/22
10:00 11:15 BRR Loganair LM451 25/07/22-25/07/22
10:05 11:20 BRR Loganair LM455 18/11/22-03/12/22
10:15 11:30 BRR Loganair LM455 19/12/22-19/12/22
10:15 11:30 BRR Loganair LM451 16/05/22-25/03/23
10:20 11:35 BRR Loganair LM451 18/05/22-18/05/22
10:25 11:40 BRR Loganair LM451 10/02/23-23/02/23
10:35 11:50 BRR Loganair LM451 04/06/22-03/07/22
10:40 11:55 BRR Loganair LM451 01/08/22-01/08/22
10:45 12:00 BRR Loganair LM451 14/08/22-14/08/22
10:50 12:05 BRR Loganair LM455 02/01/23-02/01/23
10:50 12:05 BRR Loganair LM451 11/03/23-15/03/23
11:00 12:15 BRR Loganair LM455 05/11/22-05/11/22
11:10 12:25 BRR Loganair LM455 16/02/23-18/02/23
11:10 12:25 BRR Loganair LM451 06/06/22-29/10/22
11:15 12:30 BRR Loganair LM451 13/10/22-17/10/22
11:20 12:35 BRR Loganair LM455 05/10/22-03/02/23
11:20 12:35 BRR Loganair LM451 13/08/22-13/08/22
11:25 12:40 BRR Loganair LM455 09/07/22-11/07/22
11:30 12:45 BRR Loganair LM455 17/03/23-18/03/23
11:30 12:45 BRR Loganair LM451 28/09/22-01/10/22
11:35 12:50 BRR Loganair LM455 05/12/22-07/12/22
11:40 12:55 BRR Loganair LM455 24/05/22-26/05/22
11:40 12:55 BRR Loganair LM451 13/09/22-17/09/22
11:45 13:00 BRR Loganair LM455 06/09/22-08/09/22
11:45 13:00 BRR Loganair LM451 12/01/23-14/01/23
11:50 13:05 BRR Loganair LM455 09/06/22-05/01/23
11:50 13:05 BRR Loganair LM451 24/02/23-27/02/23
11:55 13:10 BRR Loganair LM455 07/08/22-20/01/23
11:55 13:10 BRR Loganair LM451 15/11/22-16/11/22
12:00 13:15 BRR Loganair LM455 22/06/22-26/06/22
12:00 13:15 BRR Loganair LM451 25/01/23-27/01/23
12:05 13:20 BRR Loganair LM451 02/08/22-04/08/22
12:10 13:25 BRR Loganair LM451 17/06/22-16/12/22
12:15 13:30 BRR Loganair LM451 19/05/22-21/05/22
12:20 13:35 BRR Loganair LM455 19/09/22-08/11/22
12:20 13:35 BRR Loganair LM451 02/10/22-15/01/23
12:25 13:40 BRR Loganair LM455 22/07/22-24/07/22
12:25 13:40 BRR Loganair LM451 30/08/22-14/02/23
12:30 13:45 BRR Loganair LM451 28/01/23-28/01/23
12:35 13:50 BRR Loganair LM451 30/10/22-01/11/22
12:45 14:00 BRR Loganair LM455 03/03/23-20/03/23
12:45 14:00 BRR Loganair LM451 28/11/22-30/11/22
12:50 14:05 BRR Loganair LM451 16/07/22-20/07/22
12:55 14:10 BRR Loganair LM459 25/07/22-25/07/22
13:00 14:15 BRR Loganair LM455 22/08/22-22/08/22
13:00 14:15 BRR Loganair LM451 05/08/22-05/08/22
13:05 14:20 BRR Loganair LM451 22/05/22-29/01/23
13:10 14:25 BRR Loganair LM455 23/12/22-04/03/23
13:10 14:25 BRR Loganair LM459 13/08/22-13/08/22
13:15 14:30 BRR Loganair LM455 24/11/22-24/11/22
13:20 14:35 BRR Loganair LM455 16/05/22-25/03/23
13:30 14:45 BRR Loganair LM455 05/08/22-05/08/22
13:30 14:45 BRR Loganair LM451 04/07/22-07/07/22
13:35 14:50 BRR Loganair LM455 17/11/22-17/11/22
13:40 14:55 BRR Loganair LM455 01/12/22-01/12/22
13:40 14:55 BRR Loganair LM451 20/06/22-21/06/22
13:45 15:00 BRR Loganair LM455 01/03/23-01/03/23
13:50 15:05 BRR Loganair LM459 16/05/22-01/08/22
13:55 15:10 BRR Loganair LM455 28/05/22-10/09/22
14:00 15:15 BRR Loganair LM455 04/07/22-07/07/22
14:05 15:20 BRR Loganair LM459 22/07/22-22/07/22
14:10 15:25 BRR Loganair LM455 20/06/22-21/06/22
14:15 15:30 BRR Loganair LM455 02/11/22-30/01/23
14:30 15:45 BRR Loganair LM455 27/08/22-27/08/22
14:35 15:50 BRR Loganair LM455 08/07/22-08/07/22
14:40 15:55 BRR Loganair LM455 21/05/22-29/10/22
14:50 16:05 BRR Loganair LM455 01/10/22-01/10/22
15:00 16:15 BRR Loganair LM459 06/08/22-06/08/22
15:00 16:15 BRR Loganair LM455 17/09/22-17/09/22
15:05 16:20 BRR Loganair LM455 04/09/22-04/10/22
15:20 16:35 BRR Loganair LM455 05/09/22-05/09/22
15:30 16:45 BRR Loganair LM459 30/07/22-30/07/22
15:35 16:50 BRR Loganair LM459 21/05/22-21/05/22

Flights arriving from Barra

Dep Arr From Airline No. M T W T F S S Dates
10:05 11:15 BRR Loganair LM452 28/05/22-18/03/23
10:10 11:20 BRR Loganair LM452 02/11/22-02/11/22
10:25 11:35 BRR Loganair LM452 06/08/22-15/02/23
10:35 11:45 BRR Loganair LM452 04/09/22-04/09/22
10:40 11:50 BRR Loganair LM452 27/08/22-27/08/22
10:45 11:55 BRR Loganair LM452 10/09/22-10/12/22
11:00 12:10 BRR Loganair LM452 26/11/22-26/11/22
11:10 12:20 BRR Loganair LM452 18/12/22-18/12/22
11:15 12:20 BRR Loganair LM452 30/07/22-30/07/22
11:35 12:45 BRR Loganair LM452 25/07/22-25/07/22
11:40 12:50 BRR Loganair LM456 18/11/22-03/12/22
11:50 13:00 BRR Loganair LM452 16/05/22-25/03/23
11:50 13:00 BRR Loganair LM456 19/12/22-19/12/22
11:55 13:05 BRR Loganair LM452 18/05/22-18/05/22
12:00 13:10 BRR Loganair LM452 10/02/23-23/02/23
12:10 13:20 BRR Loganair LM452 04/06/22-03/07/22
12:15 13:25 BRR Loganair LM452 01/08/22-01/08/22
12:20 13:30 BRR Loganair LM452 14/08/22-14/08/22
12:25 13:35 BRR Loganair LM456 02/01/23-02/01/23
12:25 13:35 BRR Loganair LM452 11/03/23-15/03/23
12:35 13:45 BRR Loganair LM456 05/11/22-05/11/22
12:45 13:55 BRR Loganair LM456 16/02/23-18/02/23
12:45 13:55 BRR Loganair LM452 06/06/22-29/10/22
12:50 14:00 BRR Loganair LM452 13/10/22-17/10/22
12:55 14:05 BRR Loganair LM456 05/10/22-03/02/23
12:55 14:05 BRR Loganair LM452 13/08/22-13/08/22
13:00 14:10 BRR Loganair LM456 09/07/22-11/07/22
13:00 14:15 BRR Loganair LM456 10/07/22-10/07/22
13:05 14:15 BRR Loganair LM456 17/03/23-18/03/23
13:05 14:15 BRR Loganair LM452 28/09/22-01/10/22
13:10 14:20 BRR Loganair LM456 05/12/22-07/12/22
13:15 14:25 BRR Loganair LM456 24/05/22-26/05/22
13:15 14:25 BRR Loganair LM452 13/09/22-17/09/22
13:20 14:30 BRR Loganair LM456 09/06/22-08/09/22
13:20 14:30 BRR Loganair LM452 12/01/23-14/01/23
13:25 14:35 BRR Loganair LM456 03/01/23-05/01/23
13:25 14:35 BRR Loganair LM452 24/02/23-27/02/23
13:30 14:40 BRR Loganair LM456 07/08/22-20/01/23
13:30 14:40 BRR Loganair LM452 15/11/22-16/11/22
13:35 14:45 BRR Loganair LM456 22/06/22-26/06/22
13:35 14:45 BRR Loganair LM452 25/01/23-27/01/23
13:40 14:50 BRR Loganair LM452 02/08/22-04/08/22
13:45 14:55 BRR Loganair LM452 17/06/22-16/12/22
13:50 15:00 BRR Loganair LM452 19/05/22-21/05/22
13:55 15:05 BRR Loganair LM456 19/09/22-08/11/22
13:55 15:05 BRR Loganair LM452 02/10/22-15/01/23
14:00 15:10 BRR Loganair LM456 22/07/22-24/07/22
14:00 15:10 BRR Loganair LM452 30/08/22-14/02/23
14:05 15:15 BRR Loganair LM452 28/01/23-28/01/23
14:10 15:20 BRR Loganair LM452 30/10/22-01/11/22
14:20 15:30 BRR Loganair LM456 03/03/23-20/03/23
14:20 15:30 BRR Loganair LM452 28/11/22-30/11/22
14:25 15:35 BRR Loganair LM452 16/07/22-20/07/22
14:30 15:40 BRR Loganair LM460 25/07/22-25/07/22
14:35 15:45 BRR Loganair LM456 22/08/22-22/08/22
14:35 15:45 BRR Loganair LM452 05/08/22-05/08/22
14:40 15:50 BRR Loganair LM452 22/05/22-29/01/23
14:45 15:55 BRR Loganair LM456 23/12/22-04/03/23
14:45 16:00 BRR Loganair LM460 13/08/22-13/08/22
14:50 16:00 BRR Loganair LM456 24/11/22-24/11/22
14:55 16:05 BRR Loganair LM456 16/05/22-25/03/23
15:05 16:15 BRR Loganair LM456 05/08/22-05/08/22
15:05 16:15 BRR Loganair LM452 04/07/22-07/07/22
15:10 16:20 BRR Loganair LM456 17/11/22-17/11/22
15:15 16:25 BRR Loganair LM456 01/12/22-01/12/22
15:15 16:25 BRR Loganair LM452 20/06/22-21/06/22
15:20 16:30 BRR Loganair LM456 01/03/23-01/03/23
15:25 16:35 BRR Loganair LM460 16/05/22-01/08/22
15:30 16:40 BRR Loganair LM456 28/05/22-10/09/22
15:35 16:45 BRR Loganair LM456 04/07/22-07/07/22
15:40 16:50 BRR Loganair LM460 22/07/22-22/07/22
15:45 16:55 BRR Loganair LM456 20/06/22-21/06/22
15:50 17:00 BRR Loganair LM456 02/11/22-30/01/23
16:05 17:15 BRR Loganair LM456 27/08/22-27/08/22
16:10 17:20 BRR Loganair LM456 08/07/22-08/07/22
16:15 17:25 BRR Loganair LM456 21/05/22-29/10/22
16:25 17:35 BRR Loganair LM456 01/10/22-01/10/22
16:35 17:45 BRR Loganair LM460 06/08/22-06/08/22
16:35 17:45 BRR Loganair LM456 17/09/22-17/09/22
16:40 17:50 BRR Loganair LM456 04/09/22-04/10/22
16:55 18:05 BRR Loganair LM456 05/09/22-05/09/22
17:05 18:15 BRR Loganair LM460 30/07/22-30/07/22
17:10 18:20 BRR Loganair LM460 21/05/22-21/05/22

Scroll to view more

Similar Destinations

Glasgow Airport